Time;durP1;ratioP1;P1;durP2;ratioP2;P2;SDS_P1;SDS_P2;PMS_P1;PMS_P2;Temp;Humidity;BMP_temperature;BMP_pressure;BME280_temperature;BME280_humidity;BME280_pressure;Samples;Min_cycle;Max_cycle;Signal;HPM_P1;HPM_P2
2022/03/31 00:02:19;;;;;;;8.30;5.85;;;6.50;66.50;;;;;;5043274;28;20319;-66
2022/03/31 00:04:47;;;;;;;7.07;6.35;;;6.50;66.30;;;;;;5047666;28;20605;-66
2022/03/31 00:07:14;;;;;;;6.53;5.90;;;6.50;65.40;;;;;;5036170;28;20229;-66
2022/03/31 00:09:41;;;;;;;7.05;6.38;;;6.40;65.50;;;;;;5047410;28;20236;-66
2022/03/31 00:12:09;;;;;;;7.00;5.70;;;6.40;65.70;;;;;;5036910;28;20316;-66
2022/03/31 00:14:36;;;;;;;6.82;6.22;;;6.30;65.60;;;;;;5047607;28;20301;-66
2022/03/31 00:17:03;;;;;;;6.82;6.20;;;6.20;65.60;;;;;;5043070;28;20313;-66
2022/03/31 00:19:30;;;;;;;6.75;6.05;;;6.10;65.70;;;;;;5049127;28;20229;-66
2022/03/31 00:24:42;;;;;;;6.78;5.68;;;6.10;65.80;;;;;;5038918;28;20292;-66
2022/03/31 00:27:09;;;;;;;8.38;6.32;;;6.00;65.80;;;;;;5040639;28;20221;-66
2022/03/31 00:29:36;;;;;;;9.13;5.20;;;6.10;66.30;;;;;;5043735;28;20213;-66
2022/03/31 00:32:04;;;;;;;5.32;4.80;;;6.00;65.60;;;;;;5041527;28;20225;-66
2022/03/31 00:34:31;;;;;;;7.65;5.45;;;6.00;65.70;;;;;;5047638;28;20379;-66
2022/03/31 00:37:00;;;;;;;6.10;5.47;;;6.10;65.30;;;;;;5050025;28;20240;-66
2022/03/31 00:39:29;;;;;;;6.50;5.95;;;6.00;65.00;;;;;;5037588;28;20319;-66
2022/03/31 00:41:57;;;;;;;9.65;5.25;;;6.00;65.30;;;;;;5047728;28;20308;-66
2022/03/31 00:44:23;;;;;;;5.68;5.07;;;6.10;65.60;;;;;;5036125;28;20668;-66
2022/03/31 00:46:52;;;;;;;4.65;4.25;;;6.10;64.90;;;;;;5047449;28;20303;-67
2022/03/31 00:49:20;;;;;;;5.45;4.82;;;6.00;64.30;;;;;;5045211;28;20309;-66
2022/03/31 00:51:47;;;;;;;5.10;4.70;;;5.90;64.10;;;;;;5046714;28;20228;-66
2022/03/31 00:54:25;;;;;;;7.40;5.57;;;5.90;64.70;;;;;;5038215;28;20315;-66
2022/03/31 00:56:53;;;;;;;6.80;6.13;;;5.80;64.40;;;;;;5041190;28;20221;-66
2022/03/31 00:59:20;;;;;;;7.75;5.38;;;5.70;64.80;;;;;;5046689;28;20234;-66
2022/03/31 01:01:49;;;;;;;7.13;5.85;;;5.70;64.80;;;;;;5047912;28;20229;-66
2022/03/31 01:04:16;;;;;;;7.07;5.10;;;5.60;64.70;;;;;;5044599;28;20895;-66
2022/03/31 01:06:44;;;;;;;6.63;5.28;;;5.60;64.60;;;;;;5041247;28;20258;-67
2022/03/31 01:09:12;;;;;;;6.80;6.10;;;5.60;64.70;;;;;;5045099;28;20656;-66
2022/03/31 01:11:40;;;;;;;6.65;5.28;;;5.60;65.10;;;;;;5047842;28;20272;-66
2022/03/31 01:14:08;;;;;;;5.63;4.82;;;5.50;64.70;;;;;;5044182;28;20312;-66
2022/03/31 01:16:35;;;;;;;6.75;4.97;;;5.50;64.60;;;;;;5041172;28;20300;-66
2022/03/31 01:19:07;;;;;;;10.68;5.13;;;5.50;64.60;;;;;;5054056;28;20308;-66
2022/03/31 01:21:37;;;;;;;5.90;5.15;;;5.50;64.70;;;;;;5051021;28;20309;-65
2022/03/31 01:24:07;;;;;;;5.70;5.05;;;5.40;64.70;;;;;;5044582;28;20243;-66
2022/03/31 01:26:35;;;;;;;5.18;4.65;;;5.50;64.90;;;;;;5049568;28;20233;-67
2022/03/31 01:29:02;;;;;;;8.57;5.55;;;5.50;64.70;;;;;;5045023;28;20229;-67
2022/03/31 01:31:29;;;;;;;6.07;5.55;;;5.50;64.70;;;;;;5040994;28;20248;-67
2022/03/31 01:33:56;;;;;;;6.45;5.60;;;5.60;64.80;;;;;;5042004;28;20703;-66
2022/03/31 01:36:23;;;;;;;6.07;5.43;;;5.50;64.70;;;;;;5052434;28;20670;-66
2022/03/31 01:38:50;;;;;;;7.88;5.80;;;5.40;64.50;;;;;;5043646;28;20747;-66
2022/03/31 01:41:18;;;;;;;6.35;4.50;;;5.40;64.60;;;;;;5053433;28;20305;-66
2022/03/31 01:43:45;;;;;;;5.80;5.20;;;5.40;64.70;;;;;;5041569;28;20740;-66
2022/03/31 01:46:12;;;;;;;9.18;4.95;;;5.40;64.50;;;;;;5052173;28;20229;-67
2022/03/31 01:48:39;;;;;;;9.80;5.00;;;5.30;64.70;;;;;;5041628;28;20566;-66
2022/03/31 01:51:07;;;;;;;4.88;4.28;;;5.20;64.90;;;;;;5051769;28;20283;-66
2022/03/31 01:53:37;;;;;;;5.78;5.30;;;5.20;65.00;;;;;;5040793;28;20317;-66
2022/03/31 01:56:04;;;;;;;4.72;4.25;;;5.20;65.20;;;;;;5046267;28;20249;-66
2022/03/31 01:58:32;;;;;;;4.95;4.55;;;5.20;65.10;;;;;;5046817;28;20309;-66
2022/03/31 02:01:00;;;;;;;7.97;4.45;;;5.10;65.10;;;;;;5040403;28;20312;-66
2022/03/31 02:03:27;;;;;;;7.50;4.90;;;5.10;64.90;;;;;;5052511;28;20228;-66
2022/03/31 02:05:53;;;;;;;5.13;4.40;;;5.10;64.80;;;;;;5041029;28;20300;-66
2022/03/31 02:08:21;;;;;;;6.57;5.25;;;5.10;65.00;;;;;;5039601;28;20257;-66
2022/03/31 02:10:49;;;;;;;6.15;4.45;;;4.90;65.10;;;;;;5045695;28;20230;-66
2022/03/31 02:13:16;;;;;;;5.72;5.00;;;5.00;65.30;;;;;;5046138;28;20361;-66
2022/03/31 02:15:45;;;;;;;5.10;4.60;;;4.90;65.20;;;;;;5041969;28;20232;-66
2022/03/31 02:18:12;;;;;;;6.43;5.38;;;4.90;65.30;;;;;;5056691;28;20308;-66
2022/03/31 02:20:39;;;;;;;7.00;4.20;;;4.80;65.30;;;;;;5041588;28;20630;-66
2022/03/31 02:23:06;;;;;;;9.25;4.68;;;4.70;65.50;;;;;;5051178;28;20225;-66
2022/03/31 02:25:34;;;;;;;6.22;4.68;;;4.70;65.80;;;;;;5047378;28;20743;-66
2022/03/31 02:28:02;;;;;;;7.32;4.90;;;4.60;65.80;;;;;;5043407;28;20237;-66
2022/03/31 02:30:29;;;;;;;6.22;4.80;;;4.50;65.80;;;;;;5039384;28;20256;-66
2022/03/31 02:32:59;;;;;;;6.25;4.30;;;4.50;66.10;;;;;;5050092;28;20544;-66
2022/03/31 02:35:26;;;;;;;5.75;4.72;;;4.50;66.10;;;;;;5037431;28;20213;-66
2022/03/31 02:37:53;;;;;;;7.43;4.78;;;4.50;66.00;;;;;;5039872;28;20230;-66
2022/03/31 02:40:20;;;;;;;8.38;4.18;;;4.50;66.00;;;;;;5044398;28;20241;-66
2022/03/31 02:42:47;;;;;;;4.90;4.45;;;4.50;65.90;;;;;;5033653;28;20248;-66
2022/03/31 02:45:14;;;;;;;5.28;4.13;;;4.50;66.00;;;;;;5038388;28;20562;-66
2022/03/31 02:47:44;;;;;;;4.55;4.15;;;4.50;66.30;;;;;;5051512;28;20236;-66
2022/03/31 02:50:13;;;;;;;4.30;3.90;;;4.50;66.30;;;;;;5031534;28;20232;-66
2022/03/31 02:55:28;;;;;;;5.28;4.88;;;4.50;66.10;;;;;;5040719;28;20313;-66
2022/03/31 02:57:55;;;;;;;6.03;4.70;;;4.50;66.10;;;;;;5045635;28;20225;-67
2022/03/31 03:00:22;;;;;;;4.40;4.00;;;4.50;66.30;;;;;;5040875;28;20821;-66
2022/03/31 03:02:49;;;;;;;4.60;4.20;;;4.50;66.10;;;;;;5037432;28;20576;-66
2022/03/31 03:05:18;;;;;;;6.47;4.45;;;4.50;66.10;;;;;;5051715;28;20229;-66
2022/03/31 03:07:44;;;;;;;7.30;5.00;;;4.50;65.80;;;;;;5051405;28;20220;-66
2022/03/31 03:10:13;;;;;;;7.53;5.53;;;4.50;65.70;;;;;;5051315;28;20225;-66
2022/03/31 03:12:41;;;;;;;5.68;4.78;;;4.50;65.90;;;;;;5052260;28;20601;-66
2022/03/31 03:15:08;;;;;;;4.47;4.07;;;4.40;65.60;;;;;;5052372;28;20228;-66
2022/03/31 03:17:35;;;;;;;5.63;4.57;;;4.40;65.50;;;;;;5051967;28;20247;-66
2022/03/31 03:20:02;;;;;;;7.07;4.97;;;4.40;65.50;;;;;;5052182;28;20225;-66
2022/03/31 03:22:31;;;;;;;5.95;4.43;;;4.30;65.20;;;;;;5051738;28;20256;-66
2022/03/31 03:24:58;;;;;;;5.05;4.55;;;4.30;65.50;;;;;;5052084;28;20246;-67
2022/03/31 03:27:25;;;;;;;7.57;4.82;;;4.30;65.60;;;;;;5051854;28;20229;-66
2022/03/31 03:29:52;;;;;;;6.88;4.47;;;4.20;64.70;;;;;;5052277;28;20225;-65
2022/03/31 03:32:19;;;;;;;5.57;4.20;;;4.20;64.90;;;;;;5051628;28;20240;-66
2022/03/31 03:34:46;;;;;;;5.00;4.50;;;4.30;65.00;;;;;;5052449;28;20588;-66
2022/03/31 03:37:13;;;;;;;5.65;5.05;;;4.30;64.80;;;;;;5051546;28;20240;-66
2022/03/31 03:39:41;;;;;;;6.97;4.00;;;4.30;64.70;;;;;;5051931;28;20229;-66
2022/03/31 03:42:08;;;;;;;5.25;4.10;;;4.20;64.10;;;;;;5051469;28;20225;-66
2022/03/31 03:44:36;;;;;;;6.80;5.00;;;4.30;64.30;;;;;;5052137;28;20320;-66
2022/03/31 03:47:03;;;;;;;4.93;3.97;;;4.20;64.30;;;;;;5051967;28;20695;-66
2022/03/31 03:49:30;;;;;;;4.30;3.88;;;4.20;64.10;;;;;;5051674;28;20237;-66
2022/03/31 03:51:56;;;;;;;4.60;4.05;;;4.20;65.00;;;;;;5050863;28;20687;-67
2022/03/31 03:54:24;;;;;;;4.93;4.43;;;4.20;64.00;;;;;;5050270;28;20230;-66
2022/03/31 03:56:52;;;;;;;6.72;4.25;;;4.10;63.80;;;;;;5051739;28;20278;-67
2022/03/31 03:59:18;;;;;;;4.82;3.90;;;3.90;64.10;;;;;;5050673;28;20638;-66
2022/03/31 04:01:45;;;;;;;4.78;4.15;;;3.80;64.60;;;;;;5049932;28;20225;-66
2022/03/31 04:04:12;;;;;;;8.40;4.43;;;3.80;64.80;;;;;;5050046;28;20225;-67
2022/03/31 04:06:39;;;;;;;6.97;3.55;;;3.70;64.90;;;;;;5051051;28;20225;-67
2022/03/31 04:09:06;;;;;;;5.65;4.63;;;3.70;64.90;;;;;;5051964;28;20221;-67
2022/03/31 04:11:33;;;;;;;4.95;4.40;;;3.70;64.80;;;;;;5051689;28;20236;-66
2022/03/31 04:14:01;;;;;;;3.90;3.20;;;3.80;64.90;;;;;;5051945;28;20557;-66
2022/03/31 04:16:28;;;;;;;6.57;3.85;;;3.80;64.70;;;;;;5051558;28;20228;-66
2022/03/31 04:18:54;;;;;;;5.10;3.42;;;3.80;64.50;;;;;;5050588;28;20228;-66
2022/03/31 04:21:21;;;;;;;5.05;4.05;;;3.80;64.60;;;;;;5049915;28;20235;-66
2022/03/31 04:23:48;;;;;;;4.55;3.47;;;3.70;64.40;;;;;;5049900;28;20749;-66
2022/03/31 04:26:15;;;;;;;6.68;3.47;;;3.70;64.40;;;;;;5049977;28;20582;-66
2022/03/31 04:28:42;;;;;;;5.25;3.25;;;3.60;64.50;;;;;;5051943;28;20308;-66
2022/03/31 04:31:10;;;;;;;4.35;3.45;;;3.60;64.80;;;;;;5056033;28;20735;-66
2022/03/31 04:33:37;;;;;;;6.78;4.15;;;3.60;64.60;;;;;;5055418;28;20993;-66
2022/03/31 04:36:05;;;;;;;6.82;4.30;;;3.60;64.70;;;;;;5055776;28;20574;-66
2022/03/31 04:38:31;;;;;;;5.15;3.78;;;3.50;65.00;;;;;;5055456;28;20229;-66
2022/03/31 04:40:58;;;;;;;5.47;4.13;;;3.50;65.00;;;;;;5055709;28;20587;-66
2022/03/31 04:43:25;;;;;;;4.25;3.25;;;3.40;65.00;;;;;;5053863;28;20881;-66
2022/03/31 04:45:52;;;;;;;4.47;3.65;;;3.40;65.40;;;;;;5055547;28;20232;-65
2022/03/31 04:48:20;;;;;;;6.57;4.07;;;3.40;65.10;;;;;;5054976;28;20320;-66
2022/03/31 04:50:47;;;;;;;4.28;3.35;;;3.40;65.50;;;;;;5055394;28;20523;-66
2022/03/31 04:53:14;;;;;;;5.40;3.60;;;3.40;65.30;;;;;;5054971;28;20586;-66
2022/03/31 04:55:42;;;;;;;4.35;3.30;;;3.30;65.20;;;;;;5054937;28;20283;-66
2022/03/31 04:58:08;;;;;;;3.70;3.20;;;3.30;65.30;;;;;;5054360;28;20283;-66
2022/03/31 05:00:35;;;;;;;5.15;3.40;;;3.30;65.60;;;;;;5053555;28;20229;-66
2022/03/31 05:03:02;;;;;;;6.60;4.13;;;3.30;65.60;;;;;;5055235;28;20228;-66
2022/03/31 05:05:30;;;;;;;4.38;3.55;;;3.30;65.80;;;;;;5055047;28;20229;-66
2022/03/31 05:07:57;;;;;;;4.00;3.60;;;3.30;65.80;;;;;;5055114;28;20217;-66
2022/03/31 05:10:24;;;;;;;5.25;3.78;;;3.30;65.90;;;;;;5054637;28;20232;-66
2022/03/31 05:12:51;;;;;;;6.07;3.13;;;3.30;65.60;;;;;;5055075;28;20231;-66
2022/03/31 05:15:18;;;;;;;4.85;3.40;;;3.20;65.70;;;;;;5054761;28;20702;-66
2022/03/31 05:17:44;;;;;;;4.78;3.80;;;3.20;65.80;;;;;;5054780;28;20236;-66
2022/03/31 05:20:13;;;;;;;4.50;3.30;;;3.20;66.10;;;;;;5054923;28;20225;-67
2022/03/31 05:22:42;;;;;;;4.13;3.38;;;3.20;66.30;;;;;;5054332;28;20247;-67
2022/03/31 05:25:10;;;;;;;4.68;3.47;;;3.20;66.20;;;;;;5054467;28;20241;-66
2022/03/31 05:27:42;;;;;;;3.72;3.42;;;3.20;66.30;;;;;;5053210;28;20308;-65
2022/03/31 05:30:09;;;;;;;4.00;3.22;;;3.20;66.30;;;;;;5053521;28;20233;-66
2022/03/31 05:32:36;;;;;;;4.07;3.05;;;3.10;66.40;;;;;;5053122;28;20683;-66
2022/03/31 05:35:03;;;;;;;3.80;3.40;;;3.10;66.70;;;;;;5053625;28;20221;-66
2022/03/31 05:37:30;;;;;;;4.05;3.25;;;3.10;66.80;;;;;;5052964;28;20221;-66
2022/03/31 05:39:58;;;;;;;3.70;3.40;;;3.00;66.50;;;;;;5053088;28;20675;-67
2022/03/31 05:42:25;;;;;;;6.43;4.03;;;3.00;66.70;;;;;;5052639;28;20233;-66
2022/03/31 05:44:52;;;;;;;6.55;3.75;;;3.00;66.90;;;;;;5053508;28;20229;-66
2022/03/31 05:47:18;;;;;;;9.73;4.45;;;2.90;67.80;;;;;;5053005;28;20222;-66
2022/03/31 05:49:45;;;;;;;4.70;3.95;;;3.00;67.30;;;;;;5053260;28;20221;-66
2022/03/31 05:52:12;;;;;;;5.75;3.70;;;2.90;67.00;;;;;;5052830;28;20225;-65
2022/03/31 05:54:39;;;;;;;7.32;3.50;;;2.90;67.40;;;;;;5052890;28;20217;-66
2022/03/31 05:57:07;;;;;;;3.90;3.50;;;2.90;67.70;;;;;;5053166;28;20229;-66
2022/03/31 05:59:34;;;;;;;3.75;3.42;;;2.90;68.00;;;;;;5052644;28;20290;-66
2022/03/31 06:02:01;;;;;;;7.53;3.60;;;3.00;67.90;;;;;;5052892;28;20233;-66
2022/03/31 06:04:28;;;;;;;6.82;2.80;;;3.00;67.60;;;;;;5052848;28;20330;-66
2022/03/31 06:06:55;;;;;;;5.00;3.40;;;3.00;67.00;;;;;;5053118;28;20221;-66
2022/03/31 06:09:22;;;;;;;6.78;3.55;;;3.00;67.30;;;;;;5052698;28;20225;-66
2022/03/31 06:11:48;;;;;;;4.13;3.30;;;2.90;67.30;;;;;;5052817;28;20229;-66
2022/03/31 06:14:16;;;;;;;4.10;3.70;;;3.00;67.60;;;;;;5052743;28;20705;-66
2022/03/31 06:16:43;;;;;;;4.90;3.25;;;3.10;67.60;;;;;;5052649;28;20232;-66
2022/03/31 06:19:10;;;;;;;4.38;3.72;;;3.10;67.50;;;;;;5052757;28;20225;-67
2022/03/31 06:21:38;;;;;;;5.55;3.53;;;3.10;67.00;;;;;;5052094;28;20221;-66
2022/03/31 06:24:06;;;;;;;3.95;3.55;;;3.20;67.20;;;;;;5052830;28;20231;-66
2022/03/31 06:26:34;;;;;;;4.90;3.80;;;3.20;66.80;;;;;;5009732;28;1238166;-66
2022/03/31 06:29:05;;;;;;;4.03;3.70;;;3.20;66.70;;;;;;5053851;28;20487;-66
2022/03/31 06:31:34;;;;;;;5.82;3.40;;;3.20;66.50;;;;;;5053273;28;20229;-65
2022/03/31 06:34:01;;;;;;;3.58;3.28;;;3.20;66.40;;;;;;5053470;28;20687;-65
2022/03/31 06:36:30;;;;;;;5.68;3.83;;;3.20;66.50;;;;;;5052980;28;20228;-66
2022/03/31 06:38:57;;;;;;;5.72;3.92;;;3.20;66.70;;;;;;5053723;28;20559;-67
2022/03/31 06:41:24;;;;;;;4.35;3.58;;;3.30;66.50;;;;;;5052722;28;20267;-66
2022/03/31 06:43:51;;;;;;;4.90;3.92;;;3.30;66.50;;;;;;5053558;28;20217;-66
2022/03/31 06:46:19;;;;;;;4.47;3.50;;;3.40;66.60;;;;;;5053139;28;20220;-67
2022/03/31 06:48:48;;;;;;;3.83;3.35;;;3.40;66.10;;;;;;5052885;28;20221;-66
2022/03/31 06:51:17;;;;;;;6.00;3.60;;;3.40;66.20;;;;;;5052839;28;20229;-66
2022/03/31 06:53:45;;;;;;;6.25;3.80;;;3.40;65.50;;;;;;5052642;28;20670;-66
2022/03/31 06:56:16;;;;;;;6.40;3.67;;;3.40;65.50;;;;;;5053279;28;20275;-65
2022/03/31 06:58:44;;;;;;;10.77;4.32;;;3.40;65.60;;;;;;5053235;28;20224;-67
2022/03/31 07:01:12;;;;;;;17.38;3.38;;;3.40;65.50;;;;;;5053530;28;20237;-66
2022/03/31 07:03:39;;;;;;;5.07;3.90;;;3.50;65.30;;;;;;5044755;28;20545;-66
2022/03/31 07:06:07;;;;;;;5.90;3.97;;;3.50;65.40;;;;;;5046082;28;20613;-66
2022/03/31 07:08:35;;;;;;;5.68;4.10;;;3.60;65.50;;;;;;5053164;28;20312;-66
2022/03/31 07:11:02;;;;;;;7.50;4.22;;;3.60;65.20;;;;;;5053335;28;20776;-65
2022/03/31 07:13:30;;;;;;;5.22;3.80;;;3.70;65.20;;;;;;5053161;28;20636;-66
2022/03/31 07:15:57;;;;;;;4.65;4.15;;;3.80;65.20;;;;;;5053501;28;20307;-66
2022/03/31 07:18:25;;;;;;;3.75;3.45;;;3.80;64.70;;;;;;5053003;28;20232;-67
2022/03/31 07:20:52;;;;;;;7.13;5.28;;;3.90;64.40;;;;;;5053038;28;20225;-66
2022/03/31 07:23:23;;;;;;;4.70;3.70;;;3.90;63.90;;;;;;5053160;28;20624;-65
2022/03/31 07:25:53;;;;;;;6.00;3.90;;;4.00;64.30;;;;;;5053011;28;20228;-66
2022/03/31 07:28:20;;;;;;;4.07;3.78;;;4.10;64.30;;;;;;5052859;28;20309;-65
2022/03/31 07:30:48;;;;;;;4.45;4.05;;;4.30;64.30;;;;;;5052732;28;20224;-66
2022/03/31 07:33:15;;;;;;;5.72;3.95;;;4.30;63.00;;;;;;5053203;28;20278;-66
2022/03/31 07:35:42;;;;;;;4.35;3.95;;;4.30;62.90;;;;;;5052450;28;20221;-66
2022/03/31 07:38:09;;;;;;;4.85;3.58;;;4.40;62.90;;;;;;5053157;28;20225;-66
2022/03/31 07:40:40;;;;;;;6.75;4.47;;;4.40;62.70;;;;;;5052586;28;20247;-66
2022/03/31 07:43:07;;;;;;;7.13;5.05;;;4.50;62.50;;;;;;5052720;28;20694;-66
2022/03/31 07:45:35;;;;;;;10.07;4.07;;;4.60;62.60;;;;;;5052450;28;20236;-66
2022/03/31 07:48:03;;;;;;;4.10;3.78;;;4.60;62.10;;;;;;5052735;28;20225;-66
2022/03/31 07:50:31;;;;;;;7.80;4.72;;;4.70;62.00;;;;;;5052305;28;20252;-66
2022/03/31 07:52:58;;;;;;;6.60;4.63;;;4.70;61.60;;;;;;5052854;28;20235;-66
2022/03/31 07:55:25;;;;;;;5.85;4.22;;;4.70;61.50;;;;;;5052696;28;20687;-66
2022/03/31 07:57:54;;;;;;;7.93;5.07;;;4.60;61.50;;;;;;5052227;28;20316;-65
2022/03/31 08:00:22;;;;;;;5.30;4.10;;;4.50;61.40;;;;;;5052532;28;20221;-66
2022/03/31 08:02:51;;;;;;;7.53;3.92;;;4.50;61.80;;;;;;5051926;28;20229;-65
2022/03/31 08:05:22;;;;;;;4.38;3.83;;;4.60;61.90;;;;;;5052655;28;20221;-66
2022/03/31 08:07:48;;;;;;;5.97;4.75;;;4.70;61.80;;;;;;5052201;28;20541;-65
2022/03/31 08:10:16;;;;;;;5.60;3.92;;;4.80;61.40;;;;;;5052327;28;20303;-65
2022/03/31 08:12:44;;;;;;;9.48;5.63;;;4.90;61.10;;;;;;5052056;28;20247;-65
2022/03/31 08:15:15;;;;;;;5.72;4.68;;;4.90;61.20;;;;;;5052747;28;20225;-66
2022/03/31 08:17:42;;;;;;;5.68;4.85;;;4.90;61.10;;;;;;5051971;28;20237;-66
2022/03/31 08:20:11;;;;;;;4.28;3.90;;;4.90;61.40;;;;;;5052391;28;20228;-65
2022/03/31 08:22:39;;;;;;;7.03;5.40;;;5.00;61.00;;;;;;5051927;28;20226;-66
2022/03/31 08:25:08;;;;;;;6.68;4.80;;;5.00;61.50;;;;;;5052128;28;20309;-66
2022/03/31 08:27:35;;;;;;;7.53;4.95;;;5.10;61.50;;;;;;5051821;28;20239;-66
2022/03/31 08:30:02;;;;;;;6.88;4.75;;;5.30;61.20;;;;;;5052523;28;20224;-66
2022/03/31 08:32:34;;;;;;;5.47;4.65;;;5.40;61.50;;;;;;5052306;28;20229;-66
2022/03/31 08:35:02;;;;;;;6.00;4.30;;;5.50;62.20;;;;;;5052043;28;20938;-66
2022/03/31 08:37:29;;;;;;;6.00;4.82;;;5.70;60.70;;;;;;5052236;28;20220;-66
2022/03/31 08:39:56;;;;;;;5.93;4.10;;;5.70;60.70;;;;;;5051977;28;20225;-66
2022/03/31 08:42:23;;;;;;;11.77;6.00;;;5.80;59.90;;;;;;5051945;28;20674;-66
2022/03/31 08:44:51;;;;;;;7.25;3.97;;;5.90;59.70;;;;;;5052134;28;20228;-66
2022/03/31 08:47:19;;;;;;;5.78;3.92;;;6.10;59.40;;;;;;5052310;28;20232;-66
2022/03/31 08:49:47;;;;;;;5.47;4.97;;;6.10;58.90;;;;;;5051612;28;20221;-66
2022/03/31 08:52:14;;;;;;;9.02;5.35;;;6.20;58.70;;;;;;5052152;28;20230;-66
2022/03/31 08:54:42;;;;;;;5.20;4.32;;;6.30;58.90;;;;;;5051563;28;20221;-67
2022/03/31 08:57:09;;;;;;;5.10;4.07;;;6.30;58.70;;;;;;5052287;28;20221;-65
2022/03/31 08:59:36;;;;;;;5.80;4.40;;;6.40;58.40;;;;;;5052174;28;20236;-65
2022/03/31 09:02:03;;;;;;;6.25;4.40;;;6.40;58.10;;;;;;5051381;28;20221;-66
2022/03/31 09:04:33;;;;;;;10.13;4.30;;;6.50;58.30;;;;;;5051935;28;20218;-66
2022/03/31 09:07:04;;;;;;;7.75;4.70;;;6.50;58.40;;;;;;5051688;28;20547;-66
2022/03/31 09:09:31;;;;;;;6.00;4.90;;;6.60;58.10;;;;;;5052143;28;20221;-67
2022/03/31 09:11:58;;;;;;;7.40;4.65;;;6.70;58.20;;;;;;5051485;28;20224;-67
2022/03/31 09:14:30;;;;;;;5.13;4.30;;;6.70;57.60;;;;;;5051962;28;20231;-67
2022/03/31 09:16:57;;;;;;;12.85;4.35;;;6.70;57.60;;;;;;5055414;28;20236;-67
2022/03/31 09:19:25;;;;;;;6.63;5.28;;;6.80;57.90;;;;;;5055568;28;20683;-67
2022/03/31 09:21:53;;;;;;;5.63;4.95;;;6.90;58.20;;;;;;5054911;28;20294;-67
2022/03/31 09:24:22;;;;;;;4.97;4.53;;;6.90;57.60;;;;;;5055567;28;20221;-65
2022/03/31 09:26:51;;;;;;;5.80;4.90;;;7.00;57.60;;;;;;5055004;28;20240;-65
2022/03/31 09:29:19;;;;;;;8.98;4.30;;;7.10;57.40;;;;;;5055531;28;20220;-65
2022/03/31 09:31:47;;;;;;;5.15;4.65;;;7.20;57.20;;;;;;5054818;28;20232;-66
2022/03/31 09:34:15;;;;;;;6.95;5.00;;;7.10;57.40;;;;;;5055438;28;20680;-66
2022/03/31 09:36:45;;;;;;;5.47;4.85;;;7.20;57.60;;;;;;5054911;28;20225;-67
2022/03/31 09:39:17;;;;;;;6.35;4.88;;;7.20;57.50;;;;;;5055231;28;20224;-67
2022/03/31 09:41:47;;;;;;;7.78;5.53;;;7.30;57.60;;;;;;5054594;28;20315;-66
2022/03/31 09:44:17;;;;;;;7.13;6.32;;;7.40;57.70;;;;;;5055285;28;20225;-67
2022/03/31 09:46:45;;;;;;;6.45;4.68;;;7.40;57.50;;;;;;5054812;28;20217;-66
2022/03/31 09:49:14;;;;;;;11.45;5.40;;;7.50;56.80;;;;;;5055096;28;20232;-67
2022/03/31 09:51:42;;;;;;;6.28;5.43;;;7.60;56.70;;;;;;5054728;28;20236;-67
2022/03/31 09:54:09;;;;;;;10.45;5.45;;;7.60;56.80;;;;;;5054865;28;20990;-66
2022/03/31 09:56:39;;;;;;;8.02;6.63;;;7.60;57.20;;;;;;5054847;28;20228;-67
2022/03/31 09:59:09;;;;;;;8.32;5.75;;;7.50;57.60;;;;;;5054584;28;20669;-66
2022/03/31 10:01:39;;;;;;;12.90;6.28;;;7.60;58.00;;;;;;5054685;28;20228;-67
2022/03/31 10:04:08;;;;;;;16.05;5.63;;;7.60;57.50;;;;;;5054209;28;20236;-67
2022/03/31 10:06:36;;;;;;;9.23;7.30;;;7.60;57.30;;;;;;5054568;28;20556;-67
2022/03/31 10:09:04;;;;;;;11.88;6.85;;;7.60;57.60;;;;;;5054310;28;20224;-67
2022/03/31 10:11:34;;;;;;;8.18;5.95;;;7.80;58.20;;;;;;5054638;28;20236;-66
2022/03/31 10:14:15;;;;;;;10.10;6.95;;;7.90;57.80;;;;;;5053804;28;20329;-67
2022/03/31 10:16:47;;;;;;;10.30;5.88;;;8.00;57.40;;;;;;5054446;28;20220;-67
2022/03/31 10:19:14;;;;;;;10.43;5.68;;;7.90;56.90;;;;;;5054305;28;20217;-66
2022/03/31 10:21:41;;;;;;;5.97;5.38;;;8.00;56.90;;;;;;5054125;28;20244;-67
2022/03/31 10:27:01;;;;;;;10.90;5.93;;;8.10;57.20;;;;;;5040762;28;20759;-66
2022/03/31 10:29:40;;;;;;;7.82;7.03;;;8.20;57.00;;;;;;5048287;28;20747;-66
2022/03/31 10:32:18;;;;;;;8.10;5.43;;;8.20;57.40;;;;;;5051637;28;20564;-66
2022/03/31 10:34:48;;;;;;;8.25;6.05;;;8.10;56.80;;;;;;5033463;28;20229;-67
2022/03/31 10:37:18;;;;;;;8.02;5.50;;;8.10;56.90;;;;;;5033099;28;20221;-66
2022/03/31 10:39:56;;;;;;;9.27;5.05;;;8.10;56.80;;;;;;5033586;28;20256;-67
2022/03/31 10:42:25;;;;;;;8.30;6.38;;;8.30;57.30;;;;;;5049385;28;20225;-67
2022/03/31 10:45:05;;;;;;;12.73;6.40;;;8.40;57.40;;;;;;5053933;28;20678;-67
2022/03/31 10:47:33;;;;;;;8.70;5.28;;;8.50;56.70;;;;;;5053507;28;20224;-67
2022/03/31 10:50:00;;;;;;;7.35;6.38;;;8.50;56.40;;;;;;5054101;28;20233;-66
2022/03/31 10:52:28;;;;;;;5.90;5.40;;;8.50;56.30;;;;;;5053458;28;20236;-67
2022/03/31 10:55:06;;;;;;;10.18;5.00;;;8.50;56.10;;;;;;5053940;28;20241;-66
2022/03/31 10:57:39;;;;;;;7.18;5.57;;;8.50;56.00;;;;;;5053303;28;20231;-67
2022/03/31 11:00:09;;;;;;;5.95;5.10;;;8.50;56.30;;;;;;5033784;28;20226;-66
2022/03/31 11:02:42;;;;;;;6.03;5.40;;;8.60;55.80;;;;;;5033454;28;20253;-67
2022/03/31 11:05:12;;;;;;;5.00;4.60;;;8.60;56.00;;;;;;5042653;28;20307;-67
2022/03/31 11:07:40;;;;;;;7.25;5.05;;;8.50;55.70;;;;;;5053121;28;20968;-65
2022/03/31 11:10:12;;;;;;;6.03;4.95;;;8.60;56.00;;;;;;5053509;28;20296;-67
2022/03/31 11:12:41;;;;;;;6.07;5.07;;;8.70;55.90;;;;;;5052873;28;20216;-67
2022/03/31 11:15:12;;;;;;;10.52;5.55;;;8.70;55.70;;;;;;5053451;28;20221;-66
2022/03/31 11:17:42;;;;;;;6.45;5.28;;;8.70;55.40;;;;;;5052861;28;20231;-66
2022/03/31 11:20:20;;;;;;;5.70;5.20;;;8.70;55.70;;;;;;5053214;28;20221;-67
2022/03/31 11:22:48;;;;;;;5.00;4.50;;;8.80;55.50;;;;;;5052897;28;20220;-66
2022/03/31 11:25:17;;;;;;;6.28;5.03;;;8.80;55.30;;;;;;5052995;28;20703;-66
2022/03/31 11:27:52;;;;;;;7.22;6.07;;;8.80;55.20;;;;;;5052641;28;20666;-67
2022/03/31 11:30:23;;;;;;;6.05;5.00;;;8.70;54.90;;;;;;5053049;28;20251;-66
2022/03/31 11:32:54;;;;;;;5.90;5.20;;;8.70;54.80;;;;;;5052837;28;20288;-66
2022/03/31 11:35:24;;;;;;;5.88;5.38;;;8.70;55.00;;;;;;5052893;28;20221;-66
2022/03/31 11:37:54;;;;;;;10.05;6.43;;;8.80;54.70;;;;;;5052368;28;20235;-66
2022/03/31 11:40:24;;;;;;;5.82;5.00;;;8.80;54.90;;;;;;5052682;28;20319;-66
2022/03/31 11:42:56;;;;;;;5.75;4.68;;;8.90;54.50;;;;;;5052154;28;20232;-67
2022/03/31 11:45:26;;;;;;;6.43;5.63;;;9.00;54.70;;;;;;5052973;28;20224;-66
2022/03/31 11:48:02;;;;;;;5.13;4.40;;;9.10;55.10;;;;;;5052569;28;20571;-66
2022/03/31 11:50:30;;;;;;;6.47;5.68;;;9.10;54.50;;;;;;5052692;28;20228;-67
2022/03/31 11:52:58;;;;;;;9.70;5.38;;;9.30;54.40;;;;;;5052260;28;20219;-67
2022/03/31 11:55:25;;;;;;;4.90;4.40;;;9.30;54.00;;;;;;5052594;28;20316;-66
2022/03/31 11:57:54;;;;;;;6.32;5.68;;;9.30;54.00;;;;;;5052126;28;20236;-66
2022/03/31 12:00:23;;;;;;;8.02;5.03;;;9.30;54.20;;;;;;5052515;28;20227;-66
2022/03/31 12:03:01;;;;;;;7.50;6.80;;;9.20;54.20;;;;;;5052183;28;20300;-67
2022/03/31 12:05:29;;;;;;;6.90;4.70;;;9.20;54.50;;;;;;5052425;28;20220;-67
2022/03/31 12:08:01;;;;;;;7.13;5.07;;;9.20;54.70;;;;;;5052094;28;20618;-67
2022/03/31 12:10:30;;;;;;;11.13;5.35;;;9.20;54.80;;;;;;5052542;28;20316;-67
2022/03/31 12:13:00;;;;;;;7.10;5.20;;;9.10;54.30;;;;;;5052047;28;20243;-66
2022/03/31 12:15:30;;;;;;;6.13;5.18;;;9.20;54.30;;;;;;5052483;28;20225;-66
2022/03/31 12:18:06;;;;;;;10.63;5.45;;;9.20;54.20;;;;;;5052003;28;20228;-66
2022/03/31 12:20:35;;;;;;;5.85;5.20;;;9.20;54.30;;;;;;5052413;28;20697;-66
2022/03/31 12:23:02;;;;;;;5.68;5.18;;;9.20;54.40;;;;;;5052006;28;20225;-66
2022/03/31 12:25:34;;;;;;;8.05;4.93;;;9.30;54.00;;;;;;5052053;28;20231;-65
2022/03/31 12:28:07;;;;;;;8.02;5.55;;;9.30;53.90;;;;;;5052008;28;20310;-67
2022/03/31 12:30:46;;;;;;;5.03;4.63;;;9.30;53.90;;;;;;5052291;28;20227;-66
2022/03/31 12:33:23;;;;;;;6.15;5.22;;;9.40;53.90;;;;;;5052760;28;20217;-67
2022/03/31 12:36:00;;;;;;;7.18;5.38;;;9.40;54.10;;;;;;5051842;28;20302;-66
2022/03/31 12:38:35;;;;;;;7.15;5.65;;;9.30;54.00;;;;;;5051869;28;20281;-68
2022/03/31 12:41:02;;;;;;;8.38;6.32;;;9.40;54.30;;;;;;5052268;28;20220;-67
2022/03/31 12:43:29;;;;;;;6.20;5.03;;;9.40;54.20;;;;;;5051777;28;20225;-66
2022/03/31 12:45:56;;;;;;;5.78;5.28;;;9.40;53.90;;;;;;5052056;28;20231;-67
2022/03/31 12:48:29;;;;;;;6.13;5.38;;;9.40;53.40;;;;;;5052380;28;20221;-67
2022/03/31 12:51:03;;;;;;;6.85;4.88;;;9.50;53.20;;;;;;5054442;28;21002;-68
2022/03/31 12:53:41;;;;;;;10.27;5.45;;;9.50;53.30;;;;;;5056063;28;20209;-67
2022/03/31 12:56:09;;;;;;;6.45;5.82;;;9.40;52.80;;;;;;5056377;28;20225;-66
2022/03/31 12:58:37;;;;;;;5.10;4.60;;;9.40;53.00;;;;;;5055708;28;20619;-66
2022/03/31 13:01:04;;;;;;;11.05;5.95;;;9.30;52.90;;;;;;5055982;28;20238;-66
2022/03/31 13:03:32;;;;;;;5.50;4.95;;;9.30;52.70;;;;;;5055403;28;20228;-66
2022/03/31 13:06:01;;;;;;;5.75;4.28;;;9.30;52.20;;;;;;5040100;28;20218;-66
2022/03/31 13:08:29;;;;;;;6.45;4.72;;;9.40;51.50;;;;;;5035325;28;20224;-66
2022/03/31 13:10:55;;;;;;;4.65;4.22;;;9.30;50.90;;;;;;5035844;28;20237;-66